Time;durP1;ratioP1;P1;durP2;ratioP2;P2;SDS_P1;SDS_P2;PMS_P1;PMS_P2;Temp;Humidity;BMP_temperature;BMP_pressure;BME280_temperature;BME280_humidity;BME280_pressure;Samples;Min_cycle;Max_cycle;Signal;HPM_P1;HPM_P2
2022/03/22 00:02:55;;;;;;;36.13;19.98;;;;;;;8.92;83.98;102074.31;8251229;28;20038;-64
2022/03/22 00:06:56;;;;;;;42.60;20.65;;;;;;;8.85;84.00;102080.16;8256925;28;20069;-64
2022/03/22 00:10:56;;;;;;;36.95;20.38;;;;;;;8.73;84.31;102083.56;8252686;28;20517;-64
2022/03/22 00:14:57;;;;;;;37.17;20.50;;;;;;;8.66;84.59;102087.59;8252523;28;20045;-64
2022/03/22 00:18:57;;;;;;;37.53;20.48;;;;;;;8.61;85.09;102090.56;8254016;28;20047;-64
2022/03/22 00:22:58;;;;;;;37.28;21.02;;;;;;;8.64;84.77;102085.00;8257160;28;20041;-64
2022/03/22 00:26:58;;;;;;;42.40;21.02;;;;;;;8.57;85.12;102085.44;8284108;28;20046;-64
2022/03/22 00:30:59;;;;;;;36.78;20.10;;;;;;;8.61;84.56;102079.78;8262593;28;20097;-64
2022/03/22 00:34:59;;;;;;;42.90;20.95;;;;;;;8.45;85.10;102078.06;8238182;28;20073;-64
2022/03/22 00:39:02;;;;;;;36.83;19.02;;;;;;;8.32;85.74;102087.81;8257001;28;20043;-64
2022/03/22 00:43:03;;;;;;;38.38;20.50;;;;;;;8.23;86.18;102085.66;8252626;28;20042;-64
2022/03/22 00:47:06;;;;;;;39.40;19.70;;;;;;;8.26;86.27;102080.09;8244599;28;20043;-64
2022/03/22 00:51:07;;;;;;;40.13;21.02;;;;;;;8.25;86.00;102079.22;8266587;28;20452;-64
2022/03/22 00:55:10;;;;;;;39.75;20.88;;;;;;;8.26;85.82;102083.63;8246685;28;20117;-64
2022/03/22 01:00:11;;;;;;;38.15;20.40;;;;;;;8.08;85.88;102090.91;8277178;28;20207;-64
2022/03/22 01:03:30;;;;;;;39.65;20.58;;;;;;;8.11;86.21;102089.00;8249082;28;20043;-64
2022/03/22 01:07:33;;;;;;;44.63;21.10;;;;;;;8.05;86.45;102085.69;8253060;28;20042;-64
2022/03/22 01:11:34;;;;;;;38.38;19.70;;;;;;;7.57;87.02;102079.47;8251414;28;20121;-64
2022/03/22 01:15:36;;;;;;;43.03;22.15;;;;;;;7.14;90.36;102078.19;8251068;28;20132;-64
2022/03/22 01:19:37;;;;;;;41.78;21.55;;;;;;;7.19;90.72;102078.81;8257609;28;20473;-64
2022/03/22 01:23:37;;;;;;;42.03;21.23;;;;;;;7.54;89.16;102076.94;8282119;28;20049;-64
2022/03/22 01:27:38;;;;;;;43.70;22.00;;;;;;;7.56;88.66;102075.91;8282375;28;20037;-64
2022/03/22 01:31:38;;;;;;;41.25;20.88;;;;;;;7.61;88.09;102078.34;8281209;28;20128;-64
2022/03/22 01:35:39;;;;;;;39.17;21.38;;;;;;;7.65;88.01;102075.41;8279752;28;20073;-64
2022/03/22 01:39:39;;;;;;;44.67;21.63;;;;;;;7.80;86.82;102073.69;8281029;28;20493;-64
2022/03/22 01:43:40;;;;;;;40.47;22.02;;;;;;;7.70;86.68;102073.34;8256350;28;20411;-64
2022/03/22 01:47:41;;;;;;;41.85;20.92;;;;;;;7.54;87.73;102076.94;8252446;28;20038;-64
2022/03/22 01:51:42;;;;;;;40.85;21.20;;;;;;;7.20;89.55;102072.50;8266567;28;20041;-64
2022/03/22 01:55:43;;;;;;;39.55;21.08;;;;;;;7.40;88.83;102064.22;8255821;28;20092;-64
2022/03/22 01:59:44;;;;;;;43.45;22.15;;;;;;;7.37;88.47;102068.91;8277815;28;20038;-64
2022/03/22 02:08:10;;;;;;;48.17;22.42;;;;;;;7.21;88.96;102068.88;8250259;28;20046;-64
2022/03/22 02:12:11;;;;;;;42.08;21.83;;;;;;;7.40;87.92;102066.94;8248970;28;20569;-64
2022/03/22 02:16:11;;;;;;;38.92;20.90;;;;;;;7.51;87.62;102061.81;8248823;28;20608;-64
2022/03/22 02:20:13;;;;;;;47.65;21.95;;;;;;;7.65;86.15;102059.25;8260504;28;20042;-64
2022/03/22 02:24:14;;;;;;;46.88;22.77;;;;;;;7.68;85.72;102064.47;8281305;28;20130;-64
2022/03/22 02:28:14;;;;;;;41.10;20.58;;;;;;;7.63;85.65;102055.75;8281323;28;20307;-64
2022/03/22 02:32:15;;;;;;;45.30;22.35;;;;;;;7.51;85.90;102056.44;8249206;28;20413;-64
2022/03/22 02:36:15;;;;;;;42.88;22.40;;;;;;;7.54;85.51;102056.25;8255647;28;20101;-64
2022/03/22 02:40:17;;;;;;;41.33;22.17;;;;;;;7.55;85.22;102055.34;8289249;28;20324;-64
2022/03/22 02:44:19;;;;;;;44.10;21.88;;;;;;;7.51;84.93;102056.44;8291246;28;20056;-64
2022/03/22 02:48:19;;;;;;;41.50;20.88;;;;;;;7.36;85.65;102053.72;8256457;28;20037;-64
2022/03/22 02:52:20;;;;;;;45.50;23.58;;;;;;;7.27;86.05;102063.16;8283167;28;20224;-64
2022/03/22 02:56:20;;;;;;;44.88;20.90;;;;;;;7.15;86.66;102058.44;8280924;28;20046;-64
2022/03/22 03:00:23;;;;;;;44.05;22.23;;;;;;;7.06;86.31;102063.41;8249313;28;20383;-64
2022/03/22 03:04:24;;;;;;;42.90;22.05;;;;;;;6.71;87.73;102057.16;8263049;28;20040;-64
2022/03/22 03:08:26;;;;;;;39.88;21.35;;;;;;;6.32;89.75;102061.91;8259813;28;20042;-64
2022/03/22 03:12:26;;;;;;;41.83;22.55;;;;;;;6.19;91.47;102065.25;8273129;28;20041;-64
2022/03/22 03:16:27;;;;;;;48.25;23.17;;;;;;;6.10;91.80;102063.00;8264799;28;20039;-64
2022/03/22 03:20:28;;;;;;;43.38;22.30;;;;;;;5.88;93.67;102068.53;8255653;28;20121;-64
2022/03/22 03:24:30;;;;;;;41.42;22.33;;;;;;;5.66;95.54;102075.81;8256326;28;20263;-64
2022/03/22 03:28:30;;;;;;;48.60;22.02;;;;;;;6.18;92.55;102074.22;8278110;28;20030;-64
2022/03/22 03:32:31;;;;;;;44.40;21.85;;;;;;;6.43;89.75;102072.94;8288971;28;20034;-64
2022/03/22 03:36:32;;;;;;;40.38;21.58;;;;;;;6.69;87.77;102067.16;8289189;28;20038;-64
2022/03/22 03:42:04;;;;;;;44.25;22.10;;;;;;;6.87;86.41;102063.53;8288461;28;20533;-64
2022/03/22 03:49:13;;;;;;;45.28;21.65;;;;;;;6.51;86.54;102064.50;8257435;28;20035;-64
2022/03/22 03:53:13;;;;;;;43.92;20.30;;;;;;;6.11;88.31;102086.22;8288393;28;20042;-64
2022/03/22 03:57:14;;;;;;;45.47;21.63;;;;;;;5.65;91.75;102082.13;8288846;28;20092;-64
2022/03/22 04:01:14;;;;;;;45.38;22.83;;;;;;;5.45;93.83;102079.50;8271392;28;20065;-64
2022/03/22 04:05:15;;;;;;;43.72;22.58;;;;;;;5.21;95.79;102089.53;8243608;28;20044;-64
2022/03/22 04:09:15;;;;;;;44.80;22.23;;;;;;;5.14;96.70;102089.84;8255942;28;20042;-64
2022/03/22 04:13:16;;;;;;;48.85;23.48;;;;;;;5.43;95.37;102092.13;8240901;28;20208;-64
2022/03/22 04:17:17;;;;;;;40.72;20.88;;;;;;;5.94;91.08;102090.59;8236454;28;20039;-64
2022/03/22 04:21:18;;;;;;;40.53;20.10;;;;;;;6.17;88.57;102081.44;8238800;28;20070;-64
2022/03/22 04:25:18;;;;;;;38.78;21.27;;;;;;;6.33;87.24;102079.72;8251261;28;20049;-64
2022/03/22 04:33:39;;;;;;;41.78;20.15;;;;;;;6.17;87.11;102097.56;8238796;28;20380;-64
2022/03/22 04:37:41;;;;;;;44.15;21.92;;;;;;;6.12;87.13;102087.97;8264081;28;20116;-64
2022/03/22 04:41:41;;;;;;;42.40;22.15;;;;;;;5.82;88.65;102092.97;8256097;28;20422;-64
2022/03/22 04:45:41;;;;;;;40.33;21.65;;;;;;;5.70;89.47;102088.16;8248876;28;20060;-64
2022/03/22 04:49:42;;;;;;;40.03;20.70;;;;;;;5.77;88.99;102086.94;8254129;28;20518;-64
2022/03/22 04:58:03;;;;;;;52.50;21.50;;;;;;;5.62;89.18;102093.00;8245107;28;20721;-64
2022/03/22 05:02:04;;;;;;;40.03;21.30;;;;;;;5.16;91.13;102098.72;8239013;28;20047;-64
2022/03/22 05:06:37;;;;;;;39.92;20.92;;;;;;;4.73;94.48;102098.84;8250065;28;20076;-64
2022/03/22 05:10:25;;;;;;;45.67;22.02;;;;;;;4.74;95.89;102112.16;8251164;28;20513;-64
2022/03/22 05:14:25;;;;;;;44.88;21.88;;;;;;;4.77;95.92;102112.03;8268162;28;20383;-64
2022/03/22 05:18:26;;;;;;;43.22;22.67;;;;;;;4.88;95.40;102120.47;8253153;28;20073;-64
2022/03/22 05:22:27;;;;;;;47.80;23.42;;;;;;;5.16;93.57;102120.16;8244246;28;20133;-64
2022/03/22 05:26:27;;;;;;;41.53;22.15;;;;;;;5.51;90.82;102122.13;8249808;28;20039;-64
2022/03/22 05:30:28;;;;;;;46.67;22.63;;;;;;;5.70;88.71;102123.03;8246970;28;20035;-64
2022/03/22 05:34:30;;;;;;;42.92;20.83;;;;;;;5.81;87.72;102123.41;8241292;28;20039;-64
2022/03/22 05:38:31;;;;;;;39.45;20.98;;;;;;;5.77;86.99;102124.50;8255480;28;20070;-64
2022/03/22 05:42:34;;;;;;;42.45;21.98;;;;;;;5.86;86.36;102133.00;8248081;28;20046;-64
2022/03/22 05:46:35;;;;;;;43.45;20.40;;;;;;;5.97;85.82;102133.41;8242317;28;20049;-64
2022/03/22 05:50:35;;;;;;;43.40;22.35;;;;;;;5.92;85.52;102139.94;8237034;28;20039;-64
2022/03/22 05:54:36;;;;;;;39.28;21.08;;;;;;;5.95;85.51;102142.47;8225778;28;20039;-64
2022/03/22 05:58:36;;;;;;;41.22;20.42;;;;;;;6.03;84.23;102143.84;8227634;28;20093;-64
2022/03/22 06:02:38;;;;;;;36.60;19.27;;;;;;;6.04;83.77;102134.00;8231988;28;20150;-64
2022/03/22 06:06:39;;;;;;;42.10;20.92;;;;;;;6.01;84.35;102139.50;8209884;28;20047;-64
2022/03/22 06:10:39;;;;;;;37.38;19.58;;;;;;;6.01;84.23;102144.88;8208265;28;20043;-64
2022/03/22 06:14:40;;;;;;;37.53;19.35;;;;;;;6.01;85.19;102155.63;8196370;28;20042;-64
2022/03/22 06:18:41;;;;;;;36.53;19.92;;;;;;;6.11;85.17;102156.91;8199068;28;20067;-64
2022/03/22 06:22:42;;;;;;;40.80;20.52;;;;;;;6.29;83.90;102153.34;8206260;28;20051;-64
2022/03/22 06:26:42;;;;;;;42.50;20.83;;;;;;;6.51;83.39;102151.38;8213118;28;20035;-64
2022/03/22 06:30:43;;;;;;;38.80;19.80;;;;;;;6.71;82.53;102148.56;8214897;28;20043;-64
2022/03/22 06:34:44;;;;;;;40.95;20.20;;;;;;;7.34;81.58;102149.78;8209794;28;20043;-64
2022/03/22 06:38:45;;;;;;;39.83;19.08;;;;;;;7.04;81.89;102157.59;8204147;28;20043;-64
2022/03/22 06:42:46;;;;;;;40.47;19.95;;;;;;;7.18;82.11;102152.41;8210147;28;20054;-64
2022/03/22 06:46:46;;;;;;;40.10;20.75;;;;;;;7.39;81.20;102159.38;8212905;28;20170;-64
2022/03/22 06:50:48;;;;;;;41.05;20.42;;;;;;;7.56;79.59;102162.03;8215220;28;20098;-64
2022/03/22 06:54:48;;;;;;;38.50;20.80;;;;;;;7.76;80.41;102167.22;8261350;28;20038;-64
2022/03/22 06:58:49;;;;;;;43.53;24.25;;;;;;;8.01;80.13;102164.94;8262903;28;20044;-64
2022/03/22 07:02:50;;;;;;;42.10;22.05;;;;;;;8.18;79.55;102165.81;8262034;28;20407;-64
2022/03/22 07:06:50;;;;;;;41.15;21.90;;;;;;;8.40;78.41;102163.69;8260927;28;20034;-64
2022/03/22 07:11:51;;;;;;;48.97;26.15;;;;;;;8.52;79.37;102173.78;8257811;28;20034;-64
2022/03/22 07:15:11;;;;;;;51.78;25.67;;;;;;;8.55;79.33;102170.91;8259446;28;20441;-64
2022/03/22 07:19:11;;;;;;;42.53;21.85;;;;;;;8.84;78.90;102175.50;8260461;28;20120;-64
2022/03/22 07:23:12;;;;;;;39.85;22.05;;;;;;;9.29;78.29;102164.69;8289487;28;20536;-64
2022/03/22 07:27:12;;;;;;;42.38;19.25;;;;;;;9.59;76.78;102157.41;8289999;28;20042;-64
2022/03/22 07:31:12;;;;;;;38.97;22.25;;;;;;;9.80;75.54;102166.91;8289359;28;20033;-64
2022/03/22 07:35:14;;;;;;;38.53;20.85;;;;;;;10.06;75.10;102162.56;8288972;28;20041;-64
2022/03/22 07:39:14;;;;;;;41.08;21.48;;;;;;;10.24;73.98;102173.09;8289219;28;20042;-64
2022/03/22 07:43:15;;;;;;;35.25;19.85;;;;;;;10.41;72.67;102167.47;8289744;28;20037;-64
2022/03/22 07:47:15;;;;;;;42.75;21.02;;;;;;;10.42;72.14;102174.63;8268375;28;20113;-64
2022/03/22 07:55:39;;;;;;;40.45;20.02;;;;;;;10.86;70.64;102182.53;8288290;28;20026;-64
2022/03/22 07:59:40;;;;;;;40.80;18.80;;;;;;;11.02;69.76;102185.94;8285611;28;20069;-64
2022/03/22 08:03:40;;;;;;;35.88;19.48;;;;;;;11.31;68.48;102180.28;8258151;28;20038;-64
2022/03/22 08:07:41;;;;;;;36.97;19.90;;;;;;;11.65;69.91;102179.72;8257524;28;20037;-64
2022/03/22 08:11:41;;;;;;;35.38;18.90;;;;;;;11.85;68.60;102181.91;8257334;28;20840;-64
2022/03/22 08:15:42;;;;;;;38.03;18.88;;;;;;;11.93;65.94;102182.22;8257163;28;20042;-64
2022/03/22 08:19:42;;;;;;;31.25;18.30;;;;;;;12.21;65.22;102177.53;8262547;28;20044;-64
2022/03/22 08:23:43;;;;;;;35.70;19.05;;;;;;;12.26;61.88;102175.38;8288479;28;20285;-64
2022/03/22 08:27:44;;;;;;;30.43;17.07;;;;;;;12.41;60.93;102185.97;8270205;28;20033;-64
2022/03/22 08:31:44;;;;;;;30.17;16.20;;;;;;;12.68;60.80;102175.81;8287638;28;20871;-64
2022/03/22 08:35:47;;;;;;;33.30;17.33;;;;;;;12.99;60.61;102178.00;8285680;28;20425;-64
2022/03/22 08:39:48;;;;;;;26.75;16.20;;;;;;;13.07;59.55;102174.69;8286986;28;20509;-64
2022/03/22 08:43:48;;;;;;;27.17;16.58;;;;;;;13.21;59.06;102159.06;8287816;28;20460;-64
2022/03/22 08:47:50;;;;;;;30.98;17.77;;;;;;;13.58;57.90;102165.28;8263342;28;20042;-64
2022/03/22 08:51:50;;;;;;;34.63;17.10;;;;;;;13.73;58.31;102164.06;8274997;28;20508;-64
2022/03/22 08:55:52;;;;;;;32.05;16.35;;;;;;;14.04;57.82;102174.25;8260520;28;20362;-65
2022/03/22 08:59:53;;;;;;;30.33;17.40;;;;;;;13.93;57.09;102171.50;8253322;28;20038;-65
2022/03/22 09:08:14;;;;;;;31.02;16.02;;;;;;;14.52;55.97;102164.84;8255464;28;20093;-64
2022/03/22 09:12:14;;;;;;;32.35;16.83;;;;;;;14.83;56.02;102157.75;8246277;28;20042;-64
2022/03/22 09:16:15;;;;;;;32.95;17.08;;;;;;;14.80;55.27;102164.31;8248384;28;20046;-64
2022/03/22 09:20:16;;;;;;;32.42;16.75;;;;;;;14.82;53.50;102162.31;8259612;28;20061;-64
2022/03/22 09:24:16;;;;;;;28.67;15.85;;;;;;;15.04;53.38;102151.34;8250398;28;20568;-64
2022/03/22 09:28:17;;;;;;;25.90;16.30;;;;;;;16.40;53.34;102150.25;8245794;28;20046;-64
2022/03/22 09:32:17;;;;;;;30.95;16.85;;;;;;;18.10;49.15;102148.59;8247664;28;20054;-64
2022/03/22 09:36:18;;;;;;;31.95;16.58;;;;;;;18.89;46.70;102136.09;8247819;28;20146;-64
2022/03/22 09:40:20;;;;;;;32.47;16.00;;;;;;;20.07;45.09;102141.09;8237719;28;20500;-64
2022/03/22 09:44:20;;;;;;;27.70;16.55;;;;;;;20.12;43.96;102128.63;8251638;28;20049;-64
2022/03/22 09:48:20;;;;;;;40.00;17.15;;;;;;;19.93;43.46;102127.94;8240638;28;20118;-64
2022/03/22 09:52:22;;;;;;;26.00;15.95;;;;;;;20.42;44.37;102141.84;8246324;28;20061;-64
2022/03/22 09:56:26;;;;;;;28.30;15.27;;;;;;;19.94;44.03;102130.53;8250199;28;20113;-64
2022/03/22 10:00:26;;;;;;;27.67;16.10;;;;;;;20.26;43.78;102140.88;8252600;28;20510;-64
2022/03/22 10:04:37;;;;;;;31.25;16.20;;;;;;;20.32;43.04;102134.72;8239946;28;20438;-64
2022/03/22 10:08:37;;;;;;;26.23;15.13;;;;;;;21.22;41.06;102130.22;8249282;28;20093;-64
2022/03/22 10:12:38;;;;;;;25.25;14.90;;;;;;;21.21;41.31;102123.00;8242277;28;20039;-64
2022/03/22 10:16:50;;;;;;;25.02;13.85;;;;;;;21.79;39.54;102128.34;8240010;28;20456;-64
2022/03/22 10:21:00;;;;;;;22.83;13.63;;;;;;;21.69;38.64;102117.50;8246514;28;20687;-64
2022/03/22 10:25:04;;;;;;;24.60;13.88;;;;;;;21.73;38.00;102118.00;8233759;28;20066;-64
2022/03/22 10:29:07;;;;;;;23.15;14.02;;;;;;;22.92;37.50;102116.78;8233822;28;20044;-64
2022/03/22 10:33:10;;;;;;;22.83;13.82;;;;;;;22.40;38.39;102112.88;8253750;28;20518;-64
2022/03/22 10:37:10;;;;;;;20.65;12.70;;;;;;;22.58;36.55;102099.72;8238954;28;20121;-64
2022/03/22 10:41:10;;;;;;;21.40;13.38;;;;;;;23.16;35.96;102105.56;8255257;28;20050;-64
2022/03/22 10:45:11;;;;;;;20.45;13.20;;;;;;;22.59;36.08;102112.47;8242485;28;20043;-64
2022/03/22 10:49:14;;;;;;;23.77;12.60;;;;;;;22.72;35.96;102107.22;8244726;28;20138;-64
2022/03/22 10:53:17;;;;;;;20.77;11.98;;;;;;;23.63;35.21;102093.47;8246995;28;20042;-64
2022/03/22 10:57:28;;;;;;;17.02;9.70;;;;;;;23.31;34.15;102091.84;8239465;28;20741;-64
2022/03/22 11:01:29;;;;;;;18.60;11.07;;;;;;;22.68;33.85;102092.09;8258124;28;20387;-64
2022/03/22 11:05:30;;;;;;;19.77;11.50;;;;;;;23.91;34.09;102083.50;8255106;28;20034;-64
2022/03/22 11:09:31;;;;;;;18.48;10.32;;;;;;;24.87;33.12;102082.31;8253308;28;20345;-64
2022/03/22 11:13:32;;;;;;;13.68;9.93;;;;;;;24.52;32.97;102083.97;8254841;28;20457;-65
2022/03/22 11:17:34;;;;;;;16.08;8.88;;;;;;;23.29;33.50;102082.88;8253772;28;20104;-65
2022/03/22 11:21:37;;;;;;;17.95;10.80;;;;;;;23.76;32.74;102074.34;8256003;28;20049;-65
2022/03/22 11:25:38;;;;;;;17.05;9.90;;;;;;;23.38;32.38;102072.63;8261130;28;20056;-65
2022/03/22 11:29:40;;;;;;;17.25;8.30;;;;;;;24.11;32.34;102073.63;8251112;28;20594;-65
2022/03/22 11:34:14;;;;;;;16.48;8.27;;;;;;;24.33;33.77;102062.47;8253678;28;20042;-65
2022/03/22 11:38:01;;;;;;;16.65;9.95;;;;;;;23.31;31.87;102074.41;8253399;28;20054;-65
2022/03/22 11:42:17;;;;;;;18.92;9.95;;;;;;;24.60;32.22;102063.66;8251695;28;20054;-65
2022/03/22 11:46:17;;;;;;;19.73;10.10;;;;;;;24.91;30.92;102050.41;8235073;28;20101;-65
2022/03/22 11:50:20;;;;;;;18.30;11.20;;;;;;;25.08;31.32;102051.88;8242750;28;20034;-65
2022/03/22 11:54:22;;;;;;;18.98;10.85;;;;;;;24.69;31.49;102056.97;8234269;28;20473;-65
2022/03/22 11:58:27;;;;;;;16.85;9.88;;;;;;;24.75;31.69;102051.53;8241663;28;20042;-65
2022/03/22 12:02:30;;;;;;;17.50;10.18;;;;;;;24.44;31.56;102063.88;8233018;28;20038;-65
2022/03/22 12:06:31;;;;;;;20.57;10.13;;;;;;;24.05;30.52;102055.03;8238430;28;20523;-65
2022/03/22 12:10:31;;;;;;;20.75;10.93;;;;;;;24.15;31.95;102044.56;8247067;28;20466;-65
2022/03/22 12:14:34;;;;;;;17.45;9.75;;;;;;;25.01;30.79;102059.28;8239138;28;20129;-65
2022/03/22 12:18:35;;;;;;;17.98;10.77;;;;;;;23.70;31.35;102047.47;8259346;28;20466;-65
2022/03/22 12:22:40;;;;;;;17.73;9.57;;;;;;;23.59;31.97;102051.56;8243207;28;20109;-65
2022/03/22 12:26:41;;;;;;;13.70;9.23;;;;;;;24.23;30.80;102044.44;8240652;28;20752;-65
2022/03/22 12:30:42;;;;;;;17.27;9.65;;;;;;;23.69;30.31;102029.19;8243212;28;20042;-65
2022/03/22 12:34:44;;;;;;;15.43;10.32;;;;;;;23.79;31.30;102029.75;8256985;28;20562;-65
2022/03/22 12:38:44;;;;;;;16.38;10.55;;;;;;;23.48;30.80;102020.78;8200892;28;20513;-65
2022/03/22 12:42:47;;;;;;;19.50;10.10;;;;;;;23.94;31.61;102017.66;8255102;28;20141;-65
2022/03/22 12:46:48;;;;;;;16.73;9.95;;;;;;;23.43;30.16;102009.44;8220353;28;20038;-65
2022/03/22 12:50:50;;;;;;;18.75;9.43;;;;;;;22.71;31.95;102005.34;8229050;28;20145;-65
2022/03/22 12:54:50;;;;;;;14.38;9.63;;;;;;;21.47;32.11;102008.09;8243740;28;20177;-65
2022/03/22 12:58:51;;;;;;;13.60;8.75;;;;;;;20.53;33.32;102004.13;8224235;28;20096;-65
2022/03/22 13:02:51;;;;;;;14.45;9.88;;;;;;;19.55;33.97;102002.16;8244670;28;20708;-65
2022/03/22 13:06:57;;;;;;;17.77;9.98;;;;;;;19.22;34.38;101996.41;8246384;28;20579;-65
2022/03/22 13:11:29;;;;;;;21.85;9.68;;;;;;;19.00;34.14;101991.44;8241772;28;20046;-65
2022/03/22 13:15:18;;;;;;;20.77;10.88;;;;;;;19.35;35.03;101996.88;8239056;28;20042;-65
2022/03/22 13:19:18;;;;;;;13.07;9.98;;;;;;;18.96;33.99;101984.56;8212198;28;20445;-65
2022/03/22 13:23:19;;;;;;;15.52;9.48;;;;;;;18.81;34.24;101983.41;8213169;28;20042;-65
2022/03/22 13:27:24;;;;;;;11.70;8.68;;;;;;;19.04;33.54;101973.66;8228485;28;20112;-65
2022/03/22 13:31:25;;;;;;;19.23;10.30;;;;;;;18.93;33.96;101968.44;8233532;28;20035;-65
2022/03/22 13:35:26;;;;;;;12.38;9.18;;;;;;;18.76;33.62;101969.28;8209282;28;20492;-65
2022/03/22 13:39:27;;;;;;;15.68;9.77;;;;;;;18.65;32.85;101963.22;8219513;28;20056;-65
2022/03/22 13:43:28;;;;;;;13.98;9.57;;;;;;;18.77;33.91;101951.84;8232194;28;20058;-65
2022/03/22 13:47:32;;;;;;;18.23;10.00;;;;;;;19.06;34.88;101968.88;8242524;28;20038;-65
2022/03/22 13:51:38;;;;;;;;;;;;;;;18.84;32.92;101954.81;8244423;28;20738;-65
2022/03/22 13:55:42;;;;;;;12.15;8.68;;;;;;;18.92;34.91;101961.22;8242327;28;20485;-65
2022/03/22 13:59:42;;;;;;;15.25;10.13;;;;;;;19.07;33.53;101956.91;8251352;28;20593;-65
2022/03/22 14:03:44;;;;;;;17.55;10.00;;;;;;;18.64;35.36;101962.38;8228848;28;20498;-65
2022/03/22 14:07:53;;;;;;;15.82;10.43;;;;;;;18.87;35.20;101947.13;8238990;28;20052;-65
2022/03/22 14:11:53;;;;;;;16.23;10.32;;;;;;;18.85;34.59;101946.41;8238857;28;20392;-65
2022/03/22 14:15:55;;;;;;;18.55;11.02;;;;;;;18.50;34.28;101949.22;8243379;28;20034;-65
2022/03/22 14:19:55;;;;;;;13.85;9.70;;;;;;;18.44;34.12;101944.34;8223020;28;20060;-65
2022/03/22 14:23:56;;;;;;;14.97;10.10;;;;;;;18.50;34.50;101937.38;8226308;28;20070;-65
2022/03/22 14:27:57;;;;;;;14.80;10.02;;;;;;;18.57;34.70;101930.28;8221716;28;20283;-65
2022/03/22 14:31:57;;;;;;;16.70;10.20;;;;;;;18.67;34.16;101940.09;8228988;28;20062;-65
2022/03/22 14:35:58;;;;;;;17.92;12.48;;;;;;;18.54;36.00;101939.66;8235608;28;20890;-65
2022/03/22 14:40:00;;;;;;;21.52;11.48;;;;;;;18.27;37.20;101939.69;8240626;28;20121;-63
2022/03/22 14:44:02;;;;;;;21.55;12.68;;;;;;;18.32;35.47;101931.00;8231286;28;20034;-65
2022/03/22 14:48:03;;;;;;;18.38;11.35;;;;;;;18.59;36.10;101931.84;8242327;28;20078;-66
2022/03/22 15:00:45;;;;;;;23.45;13.52;;;;;;;18.32;36.34;101920.91;8236726;28;20048;-65
2022/03/22 15:04:48;;;;;;;21.27;12.45;;;;;;;18.29;36.34;101915.75;8232840;28;20073;-65
2022/03/22 15:08:48;;;;;;;21.17;13.55;;;;;;;18.34;36.70;101910.69;8253444;28;20038;-65
2022/03/22 15:12:50;;;;;;;21.33;13.40;;;;;;;18.23;36.42;101913.66;8240068;28;20541;-65
2022/03/22 15:16:51;;;;;;;21.65;13.25;;;;;;;18.20;37.47;101908.47;8240430;28;20046;-64
2022/03/22 15:20:51;;;;;;;24.23;13.43;;;;;;;18.36;36.99;101891.34;8239139;28;20035;-64
2022/03/22 15:24:52;;;;;;;22.25;13.15;;;;;;;18.30;37.44;101903.78;8229321;28;20579;-64
2022/03/22 15:28:52;;;;;;;19.70;13.20;;;;;;;18.19;36.60;101895.81;8233182;28;20056;-64
2022/03/22 15:32:53;;;;;;;22.05;13.13;;;;;;;18.19;37.00;101893.06;8245145;28;20050;-64
2022/03/22 15:36:53;;;;;;;20.27;12.88;;;;;;;18.04;38.54;101886.41;8244488;28;20150;-64
2022/03/22 15:40:55;;;;;;;23.90;13.88;;;;;;;18.00;37.58;101882.28;8226257;28;20314;-64
2022/03/22 15:44:55;;;;;;;26.00;13.75;;;;;;;17.92;37.65;101875.84;8230355;28;20041;-64
2022/03/22 15:48:56;;;;;;;22.33;12.65;;;;;;;17.97;37.75;101871.66;8228810;28;20519;-64
2022/03/22 15:53:00;;;;;;;24.52;12.27;;;;;;;18.22;37.85;101870.88;8236936;28;20428;-64
2022/03/22 15:57:01;;;;;;;15.67;11.43;;;;;;;18.22;37.37;101868.13;8242135;28;20145;-63
2022/03/22 16:01:03;;;;;;;18.27;11.70;;;;;;;18.23;38.84;101864.34;8238305;28;20035;-64
2022/03/22 16:05:04;;;;;;;26.67;11.43;;;;;;;18.09;37.50;101862.19;8239103;28;20755;-64
2022/03/22 16:09:04;;;;;;;19.77;12.68;;;;;;;18.06;37.64;101862.50;8243156;28;20586;-64
2022/03/22 16:13:05;;;;;;;19.38;11.88;;;;;;;18.09;38.61;101862.19;8240518;28;20592;-64
2022/03/22 16:17:06;;;;;;;17.60;11.10;;;;;;;18.02;38.05;101860.22;8237532;28;20050;-64
2022/03/22 16:21:08;;;;;;;19.08;10.20;;;;;;;17.88;38.00;101858.88;8225233;28;20042;-64
2022/03/22 16:25:11;;;;;;;15.15;9.93;;;;;;;17.90;38.17;101859.56;8235967;28;20057;-64
2022/03/22 16:29:12;;;;;;;18.00;10.00;;;;;;;17.98;37.97;101862.41;8228052;28;20122;-64
2022/03/22 16:37:33;;;;;;;17.25;11.05;;;;;;;17.42;41.28;101859.84;8223460;28;20050;-63
2022/03/22 16:41:34;;;;;;;16.93;11.10;;;;;;;17.44;42.99;101859.72;8230258;28;20161;-63
2022/03/22 16:45:38;;;;;;;22.38;12.18;;;;;;;17.46;43.36;101863.19;8241178;28;21092;-63
2022/03/22 16:49:43;;;;;;;21.27;13.23;;;;;;;17.42;43.01;101861.75;8233622;28;20088;-63
2022/03/22 16:53:44;;;;;;;22.15;12.63;;;;;;;17.40;42.36;101863.75;8229107;28;20121;-63
2022/03/22 16:57:44;;;;;;;24.58;12.35;;;;;;;17.33;42.19;101859.91;8235216;28;20043;-63
2022/03/22 17:01:46;;;;;;;20.55;11.95;;;;;;;17.21;40.97;101858.38;8248276;28;20038;-62
2022/03/22 17:05:47;;;;;;;16.38;10.98;;;;;;;17.35;40.02;101855.13;8232685;28;20077;-62
2022/03/22 17:09:47;;;;;;;22.92;10.55;;;;;;;17.22;40.38;101860.09;8235102;28;20141;-63
2022/03/22 17:13:49;;;;;;;25.77;10.93;;;;;;;17.06;41.20;101860.75;8228698;28;20046;-62
2022/03/22 17:17:49;;;;;;;18.85;11.77;;;;;;;17.04;41.13;101864.63;8229862;28;20290;-63
2022/03/22 17:21:49;;;;;;;17.33;11.77;;;;;;;17.01;40.20;101862.19;8238546;28;20042;-62
2022/03/22 17:25:52;;;;;;;27.43;15.20;;;;;;;16.94;40.72;101872.00;8232630;28;20086;-63
2022/03/22 17:29:52;;;;;;;25.20;13.85;;;;;;;16.81;40.33;101871.47;8243598;28;20280;-62
2022/03/22 17:33:54;;;;;;;22.90;12.43;;;;;;;16.63;41.73;101870.50;8243962;28;20525;-62
2022/03/22 17:37:54;;;;;;;24.75;14.48;;;;;;;16.55;42.41;101870.34;8236670;28;20318;-62
2022/03/22 17:41:55;;;;;;;21.77;11.60;;;;;;;16.54;42.18;101874.97;8232393;28;20042;-62
2022/03/22 17:45:55;;;;;;;24.88;12.88;;;;;;;16.39;42.22;101872.78;8240356;28;20045;-63
2022/03/22 17:49:56;;;;;;;26.85;12.65;;;;;;;16.29;42.37;101874.69;8234453;28;21131;-63
2022/03/22 17:53:56;;;;;;;20.65;12.80;;;;;;;16.09;42.93;101879.25;8246405;28;20546;-64
2022/03/22 17:57:56;;;;;;;27.83;12.38;;;;;;;15.23;48.28;101884.50;8236188;28;20039;-64
2022/03/22 18:01:57;;;;;;;25.30;12.35;;;;;;;14.43;50.01;101887.16;8230020;28;20050;-64
2022/03/22 18:05:57;;;;;;;30.23;12.55;;;;;;;14.27;50.24;101890.31;8234127;28;20583;-64
2022/03/22 18:09:58;;;;;;;21.50;11.60;;;;;;;14.04;49.90;101891.41;8241763;28;20570;-64
2022/03/22 18:13:58;;;;;;;22.83;12.43;;;;;;;13.98;49.44;101891.91;8247571;28;20045;-64
2022/03/22 18:17:59;;;;;;;23.48;11.70;;;;;;;13.84;50.15;101894.91;8258343;28;20577;-64
2022/03/22 18:22:01;;;;;;;22.63;12.10;;;;;;;14.00;48.16;101895.34;8243723;28;20042;-64
2022/03/22 18:26:02;;;;;;;23.45;12.65;;;;;;;13.72;49.24;101896.81;8229796;28;20078;-64
2022/03/22 18:30:04;;;;;;;30.23;12.52;;;;;;;13.92;50.52;101894.28;8244616;28;20046;-64
2022/03/22 18:34:07;;;;;;;25.10;12.38;;;;;;;13.78;49.89;101900.84;8243412;28;20394;-64
2022/03/22 18:38:08;;;;;;;22.58;11.98;;;;;;;13.32;50.58;101897.47;8250741;28;20053;-64
2022/03/22 18:42:08;;;;;;;24.88;12.40;;;;;;;12.98;52.22;101903.84;8234967;28;20071;-64
2022/03/22 18:46:09;;;;;;;23.95;12.63;;;;;;;13.05;52.83;101905.16;8242644;28;20134;-64
2022/03/22 18:50:10;;;;;;;22.77;12.20;;;;;;;13.07;53.50;101908.59;8247242;28;20386;-64
2022/03/22 18:54:11;;;;;;;20.33;12.65;;;;;;;12.83;54.00;101913.22;8231954;28;20434;-64
2022/03/22 18:58:11;;;;;;;28.05;13.98;;;;;;;12.46;53.92;101907.09;8228434;28;20050;-64
2022/03/22 19:02:11;;;;;;;23.02;12.45;;;;;;;12.35;52.76;101909.75;8231058;28;20065;-64
2022/03/22 19:06:14;;;;;;;29.27;13.27;;;;;;;12.32;53.28;101909.16;8251186;28;20150;-64